Hill City, South Dakota
Current Conditions -  °F | °C
As of 8:53 AM on Wednesday 28 Jan 2015 (Local Time) from KCUT Reporting Station
Overcast Overcast  
Wind Chill: 43°   Ceiling: 10000
Heat Index: 47°   Visibility: 10mi
Dew Point: 20°   Wind: 9mph
Humidity: 34%   Direction: 340°NNW
Pressure: 29.89"   Gusts: 23mph
Location:  43.93°N, 103.58°W
Report Text: KCUT 281553Z AUTO 34008G20KT 290V360 10SM OVC100 08/M07 A2989 RMK AO2 SLP094 T00831067
Loading
Personal Weather Stations






























Interactive Weather Map New forecast layout! Learn more

10-Day Weather Forecast

Advertisements
Track Severe Weather on mobile